sensor_id;sensor_type;location;lat;lon;timestamp;P1;durP1;ratioP1;P2;durP2;ratioP2
21816;SDS011;13247;47.504;7.382;2023-09-07T00:01:50;5.32;;;3.05;;
21816;SDS011;13247;47.504;7.382;2023-09-07T00:04:36;4.32;;;3.25;;
21816;SDS011;13247;47.504;7.382;2023-09-07T00:07:21;5.90;;;3.80;;
21816;SDS011;13247;47.504;7.382;2023-09-07T00:10:05;4.63;;;3.30;;
21816;SDS011;13247;47.504;7.382;2023-09-07T00:12:50;3.55;;;2.85;;
21816;SDS011;13247;47.504;7.382;2023-09-07T00:15:38;4.40;;;3.15;;
21816;SDS011;13247;47.504;7.382;2023-09-07T00:18:23;6.13;;;3.35;;
21816;SDS011;13247;47.504;7.382;2023-09-07T00:21:07;4.63;;;3.10;;
21816;SDS011;13247;47.504;7.382;2023-09-07T00:23:52;5.50;;;3.40;;
21816;SDS011;13247;47.504;7.382;2023-09-07T00:26:36;3.53;;;3.00;;
21816;SDS011;13247;47.504;7.382;2023-09-07T00:29:21;2.83;;;2.60;;
21816;SDS011;13247;47.504;7.382;2023-09-07T00:32:05;5.43;;;3.35;;
21816;SDS011;13247;47.504;7.382;2023-09-07T00:34:50;6.78;;;3.53;;
21816;SDS011;13247;47.504;7.382;2023-09-07T00:37:35;3.83;;;3.03;;
21816;SDS011;13247;47.504;7.382;2023-09-07T00:40:21;7.55;;;3.20;;
21816;SDS011;13247;47.504;7.382;2023-09-07T00:43:06;4.85;;;3.10;;
21816;SDS011;13247;47.504;7.382;2023-09-07T00:45:51;4.85;;;2.92;;
21816;SDS011;13247;47.504;7.382;2023-09-07T00:48:37;3.45;;;2.90;;
21816;SDS011;13247;47.504;7.382;2023-09-07T00:51:22;4.88;;;2.60;;
21816;SDS011;13247;47.504;7.382;2023-09-07T00:54:07;4.55;;;3.28;;
21816;SDS011;13247;47.504;7.382;2023-09-07T00:56:52;8.88;;;2.83;;
21816;SDS011;13247;47.504;7.382;2023-09-07T00:59:37;4.88;;;2.95;;
21816;SDS011;13247;47.504;7.382;2023-09-07T01:02:23;6.72;;;3.05;;
21816;SDS011;13247;47.504;7.382;2023-09-07T01:05:07;7.40;;;3.25;;
21816;SDS011;13247;47.504;7.382;2023-09-07T01:07:57;4.47;;;3.17;;
21816;SDS011;13247;47.504;7.382;2023-09-07T01:10:50;5.25;;;3.13;;
21816;SDS011;13247;47.504;7.382;2023-09-07T01:13:34;5.88;;;3.38;;
21816;SDS011;13247;47.504;7.382;2023-09-07T01:16:19;4.53;;;3.15;;
21816;SDS011;13247;47.504;7.382;2023-09-07T01:19:08;4.28;;;3.20;;
21816;SDS011;13247;47.504;7.382;2023-09-07T01:21:53;4.90;;;3.08;;
21816;SDS011;13247;47.504;7.382;2023-09-07T01:24:38;4.93;;;3.28;;
21816;SDS011;13247;47.504;7.382;2023-09-07T01:27:23;5.07;;;3.30;;
21816;SDS011;13247;47.504;7.382;2023-09-07T01:30:08;5.35;;;3.40;;
21816;SDS011;13247;47.504;7.382;2023-09-07T01:32:53;5.15;;;3.25;;
21816;SDS011;13247;47.504;7.382;2023-09-07T01:35:38;4.40;;;3.17;;
21816;SDS011;13247;47.504;7.382;2023-09-07T01:38:24;4.80;;;3.20;;
21816;SDS011;13247;47.504;7.382;2023-09-07T01:41:09;6.03;;;3.20;;
21816;SDS011;13247;47.504;7.382;2023-09-07T01:43:54;5.18;;;3.42;;
21816;SDS011;13247;47.504;7.382;2023-09-07T01:46:39;4.93;;;3.40;;
21816;SDS011;13247;47.504;7.382;2023-09-07T01:49:23;4.05;;;3.05;;
21816;SDS011;13247;47.504;7.382;2023-09-07T01:52:08;5.40;;;3.40;;
21816;SDS011;13247;47.504;7.382;2023-09-07T01:54:54;5.22;;;3.40;;
21816;SDS011;13247;47.504;7.382;2023-09-07T01:57:39;7.78;;;3.10;;
21816;SDS011;13247;47.504;7.382;2023-09-07T02:00:24;5.80;;;3.47;;
21816;SDS011;13247;47.504;7.382;2023-09-07T02:03:08;4.93;;;3.10;;
21816;SDS011;13247;47.504;7.382;2023-09-07T02:05:54;8.25;;;3.50;;
21816;SDS011;13247;47.504;7.382;2023-09-07T02:08:39;3.67;;;2.92;;
21816;SDS011;13247;47.504;7.382;2023-09-07T02:11:23;6.47;;;3.17;;
21816;SDS011;13247;47.504;7.382;2023-09-07T02:14:08;5.70;;;3.33;;
21816;SDS011;13247;47.504;7.382;2023-09-07T02:16:52;5.47;;;3.42;;
21816;SDS011;13247;47.504;7.382;2023-09-07T02:19:37;3.72;;;3.20;;
21816;SDS011;13247;47.504;7.382;2023-09-07T02:22:21;9.50;;;3.33;;
21816;SDS011;13247;47.504;7.382;2023-09-07T02:25:06;4.60;;;3.17;;
21816;SDS011;13247;47.504;7.382;2023-09-07T02:27:51;4.10;;;2.97;;
21816;SDS011;13247;47.504;7.382;2023-09-07T02:30:36;4.05;;;3.33;;
21816;SDS011;13247;47.504;7.382;2023-09-07T02:33:20;7.45;;;3.45;;
21816;SDS011;13247;47.504;7.382;2023-09-07T02:36:05;4.32;;;3.30;;
21816;SDS011;13247;47.504;7.382;2023-09-07T02:38:50;5.30;;;3.58;;
21816;SDS011;13247;47.504;7.382;2023-09-07T02:41:34;5.20;;;3.50;;
21816;SDS011;13247;47.504;7.382;2023-09-07T02:44:19;8.50;;;4.03;;
21816;SDS011;13247;47.504;7.382;2023-09-07T02:47:04;5.82;;;3.50;;
21816;SDS011;13247;47.504;7.382;2023-09-07T02:49:48;4.60;;;3.17;;
21816;SDS011;13247;47.504;7.382;2023-09-07T02:52:33;7.53;;;3.45;;
21816;SDS011;13247;47.504;7.382;2023-09-07T02:55:18;4.50;;;3.58;;
21816;SDS011;13247;47.504;7.382;2023-09-07T02:58:03;5.70;;;3.58;;
21816;SDS011;13247;47.504;7.382;2023-09-07T03:00:47;5.55;;;3.38;;
21816;SDS011;13247;47.504;7.382;2023-09-07T03:03:32;7.25;;;3.15;;
21816;SDS011;13247;47.504;7.382;2023-09-07T03:06:17;6.45;;;3.40;;
21816;SDS011;13247;47.504;7.382;2023-09-07T03:09:02;7.15;;;3.45;;
21816;SDS011;13247;47.504;7.382;2023-09-07T03:11:52;5.45;;;3.35;;
21816;SDS011;13247;47.504;7.382;2023-09-07T03:14:37;5.13;;;3.53;;
21816;SDS011;13247;47.504;7.382;2023-09-07T03:17:21;6.55;;;3.13;;
21816;SDS011;13247;47.504;7.382;2023-09-07T03:20:06;5.82;;;3.53;;
21816;SDS011;13247;47.504;7.382;2023-09-07T03:22:57;5.70;;;3.50;;
21816;SDS011;13247;47.504;7.382;2023-09-07T03:25:42;5.22;;;3.53;;
21816;SDS011;13247;47.504;7.382;2023-09-07T03:28:26;9.30;;;3.70;;
21816;SDS011;13247;47.504;7.382;2023-09-07T03:31:11;3.90;;;3.03;;
21816;SDS011;13247;47.504;7.382;2023-09-07T03:33:55;3.55;;;3.03;;
21816;SDS011;13247;47.504;7.382;2023-09-07T03:36:40;3.75;;;3.10;;
21816;SDS011;13247;47.504;7.382;2023-09-07T03:39:25;4.93;;;2.92;;
21816;SDS011;13247;47.504;7.382;2023-09-07T03:42:09;4.97;;;3.67;;
21816;SDS011;13247;47.504;7.382;2023-09-07T03:44:54;4.03;;;3.05;;
21816;SDS011;13247;47.504;7.382;2023-09-07T03:47:38;4.90;;;3.28;;
21816;SDS011;13247;47.504;7.382;2023-09-07T03:50:23;6.70;;;3.78;;
21816;SDS011;13247;47.504;7.382;2023-09-07T03:53:07;5.43;;;3.60;;
21816;SDS011;13247;47.504;7.382;2023-09-07T03:55:52;3.92;;;3.10;;
21816;SDS011;13247;47.504;7.382;2023-09-07T03:58:36;5.03;;;3.53;;
21816;SDS011;13247;47.504;7.382;2023-09-07T04:01:21;5.53;;;3.80;;
21816;SDS011;13247;47.504;7.382;2023-09-07T04:04:05;5.00;;;3.45;;
21816;SDS011;13247;47.504;7.382;2023-09-07T04:06:50;6.72;;;3.30;;
21816;SDS011;13247;47.504;7.382;2023-09-07T04:09:35;10.38;;;3.63;;
21816;SDS011;13247;47.504;7.382;2023-09-07T04:12:19;4.20;;;3.00;;
21816;SDS011;13247;47.504;7.382;2023-09-07T04:15:04;8.75;;;3.95;;
21816;SDS011;13247;47.504;7.382;2023-09-07T04:17:49;8.57;;;3.50;;
21816;SDS011;13247;47.504;7.382;2023-09-07T04:20:34;4.93;;;3.75;;
21816;SDS011;13247;47.504;7.382;2023-09-07T04:23:19;6.18;;;3.75;;
21816;SDS011;13247;47.504;7.382;2023-09-07T04:26:10;4.60;;;3.33;;
21816;SDS011;13247;47.504;7.382;2023-09-07T04:28:55;6.18;;;3.42;;
21816;SDS011;13247;47.504;7.382;2023-09-07T04:31:40;6.93;;;2.85;;
21816;SDS011;13247;47.504;7.382;2023-09-07T04:34:24;4.45;;;3.10;;
21816;SDS011;13247;47.504;7.382;2023-09-07T04:37:09;4.78;;;2.97;;
21816;SDS011;13247;47.504;7.382;2023-09-07T04:39:54;3.38;;;2.83;;
21816;SDS011;13247;47.504;7.382;2023-09-07T04:42:38;4.80;;;3.42;;
21816;SDS011;13247;47.504;7.382;2023-09-07T04:45:23;4.97;;;3.72;;
21816;SDS011;13247;47.504;7.382;2023-09-07T04:48:07;4.85;;;3.40;;
21816;SDS011;13247;47.504;7.382;2023-09-07T04:51:01;4.10;;;3.05;;
21816;SDS011;13247;47.504;7.382;2023-09-07T04:53:49;8.05;;;3.35;;
21816;SDS011;13247;47.504;7.382;2023-09-07T04:56:34;5.38;;;3.50;;
21816;SDS011;13247;47.504;7.382;2023-09-07T04:59:18;5.50;;;3.63;;
21816;SDS011;13247;47.504;7.382;2023-09-07T05:02:03;5.05;;;3.38;;
21816;SDS011;13247;47.504;7.382;2023-09-07T05:04:48;4.22;;;3.17;;
21816;SDS011;13247;47.504;7.382;2023-09-07T05:07:33;6.80;;;3.30;;
21816;SDS011;13247;47.504;7.382;2023-09-07T05:10:18;4.13;;;3.33;;
21816;SDS011;13247;47.504;7.382;2023-09-07T05:13:02;4.65;;;3.67;;
21816;SDS011;13247;47.504;7.382;2023-09-07T05:15:50;6.13;;;3.72;;
21816;SDS011;13247;47.504;7.382;2023-09-07T05:18:36;6.40;;;3.50;;
21816;SDS011;13247;47.504;7.382;2023-09-07T05:21:21;5.45;;;3.28;;
21816;SDS011;13247;47.504;7.382;2023-09-07T05:24:06;6.88;;;3.47;;
21816;SDS011;13247;47.504;7.382;2023-09-07T05:26:51;4.07;;;3.38;;
21816;SDS011;13247;47.504;7.382;2023-09-07T05:29:35;5.40;;;3.55;;
21816;SDS011;13247;47.504;7.382;2023-09-07T05:32:20;5.85;;;3.47;;
21816;SDS011;13247;47.504;7.382;2023-09-07T05:35:04;5.75;;;3.92;;
21816;SDS011;13247;47.504;7.382;2023-09-07T05:37:49;5.13;;;3.50;;
21816;SDS011;13247;47.504;7.382;2023-09-07T05:40:34;4.95;;;3.30;;
21816;SDS011;13247;47.504;7.382;2023-09-07T05:43:28;7.68;;;3.25;;
21816;SDS011;13247;47.504;7.382;2023-09-07T05:46:13;8.55;;;3.67;;
21816;SDS011;13247;47.504;7.382;2023-09-07T05:48:58;4.57;;;3.20;;
21816;SDS011;13247;47.504;7.382;2023-09-07T05:51:43;6.03;;;3.47;;
21816;SDS011;13247;47.504;7.382;2023-09-07T05:54:28;6.43;;;3.58;;
21816;SDS011;13247;47.504;7.382;2023-09-07T05:57:13;5.38;;;3.47;;
21816;SDS011;13247;47.504;7.382;2023-09-07T05:59:58;3.83;;;3.08;;
21816;SDS011;13247;47.504;7.382;2023-09-07T06:02:43;5.70;;;3.95;;
21816;SDS011;13247;47.504;7.382;2023-09-07T06:05:29;4.95;;;3.30;;
21816;SDS011;13247;47.504;7.382;2023-09-07T06:08:14;5.95;;;4.30;;
21816;SDS011;13247;47.504;7.382;2023-09-07T06:10:59;6.97;;;4.00;;
21816;SDS011;13247;47.504;7.382;2023-09-07T06:13:44;6.88;;;4.15;;
21816;SDS011;13247;47.504;7.382;2023-09-07T06:16:30;7.05;;;4.38;;
21816;SDS011;13247;47.504;7.382;2023-09-07T06:19:15;5.03;;;3.75;;
21816;SDS011;13247;47.504;7.382;2023-09-07T06:21:59;4.20;;;3.50;;
21816;SDS011;13247;47.504;7.382;2023-09-07T06:24:44;5.47;;;4.07;;
21816;SDS011;13247;47.504;7.382;2023-09-07T06:27:28;5.28;;;4.18;;
21816;SDS011;13247;47.504;7.382;2023-09-07T06:30:13;5.80;;;4.32;;
21816;SDS011;13247;47.504;7.382;2023-09-07T06:32:58;6.38;;;3.67;;
21816;SDS011;13247;47.504;7.382;2023-09-07T06:35:43;5.40;;;4.03;;
21816;SDS011;13247;47.504;7.382;2023-09-07T06:38:27;8.23;;;4.43;;
21816;SDS011;13247;47.504;7.382;2023-09-07T06:41:12;5.60;;;4.43;;
21816;SDS011;13247;47.504;7.382;2023-09-07T06:43:57;4.93;;;3.90;;
21816;SDS011;13247;47.504;7.382;2023-09-07T06:46:41;8.55;;;4.47;;
21816;SDS011;13247;47.504;7.382;2023-09-07T06:49:26;5.93;;;4.13;;
21816;SDS011;13247;47.504;7.382;2023-09-07T06:52:13;5.03;;;3.78;;
21816;SDS011;13247;47.504;7.382;2023-09-07T06:54:59;5.80;;;4.85;;
21816;SDS011;13247;47.504;7.382;2023-09-07T06:57:43;7.53;;;4.88;;
21816;SDS011;13247;47.504;7.382;2023-09-07T07:00:28;5.55;;;4.03;;
21816;SDS011;13247;47.504;7.382;2023-09-07T07:03:13;6.38;;;4.60;;
21816;SDS011;13247;47.504;7.382;2023-09-07T07:05:57;9.77;;;6.05;;
21816;SDS011;13247;47.504;7.382;2023-09-07T07:08:42;8.98;;;5.32;;
21816;SDS011;13247;47.504;7.382;2023-09-07T07:11:26;8.10;;;5.57;;
21816;SDS011;13247;47.504;7.382;2023-09-07T07:14:11;8.80;;;5.72;;
21816;SDS011;13247;47.504;7.382;2023-09-07T07:16:56;7.00;;;5.30;;
21816;SDS011;13247;47.504;7.382;2023-09-07T07:19:40;9.35;;;6.30;;
21816;SDS011;13247;47.504;7.382;2023-09-07T07:22:26;8.38;;;5.60;;
21816;SDS011;13247;47.504;7.382;2023-09-07T07:25:11;9.75;;;5.95;;
21816;SDS011;13247;47.504;7.382;2023-09-07T07:27:56;8.07;;;5.50;;
21816;SDS011;13247;47.504;7.382;2023-09-07T07:30:42;8.82;;;6.15;;
21816;SDS011;13247;47.504;7.382;2023-09-07T07:33:26;7.18;;;5.47;;
21816;SDS011;13247;47.504;7.382;2023-09-07T07:36:11;9.23;;;6.50;;
21816;SDS011;13247;47.504;7.382;2023-09-07T07:38:56;10.82;;;6.63;;
21816;SDS011;13247;47.504;7.382;2023-09-07T07:41:40;10.60;;;5.95;;
21816;SDS011;13247;47.504;7.382;2023-09-07T07:44:25;9.63;;;6.20;;
21816;SDS011;13247;47.504;7.382;2023-09-07T07:47:10;8.82;;;5.95;;
21816;SDS011;13247;47.504;7.382;2023-09-07T07:49:55;6.78;;;5.35;;
21816;SDS011;13247;47.504;7.382;2023-09-07T07:52:40;8.63;;;6.45;;
21816;SDS011;13247;47.504;7.382;2023-09-07T07:55:25;10.90;;;6.43;;
21816;SDS011;13247;47.504;7.382;2023-09-07T07:58:09;8.57;;;6.00;;
21816;SDS011;13247;47.504;7.382;2023-09-07T08:00:54;11.48;;;6.45;;
21816;SDS011;13247;47.504;7.382;2023-09-07T08:03:41;12.43;;;6.68;;
21816;SDS011;13247;47.504;7.382;2023-09-07T08:06:26;8.07;;;5.65;;
21816;SDS011;13247;47.504;7.382;2023-09-07T08:09:11;7.60;;;5.93;;
21816;SDS011;13247;47.504;7.382;2023-09-07T08:11:57;8.02;;;5.68;;
21816;SDS011;13247;47.504;7.382;2023-09-07T08:14:42;9.35;;;6.20;;
21816;SDS011;13247;47.504;7.382;2023-09-07T08:17:26;6.85;;;5.38;;
21816;SDS011;13247;47.504;7.382;2023-09-07T08:20:11;8.13;;;5.53;;
21816;SDS011;13247;47.504;7.382;2023-09-07T08:22:56;11.85;;;6.45;;
21816;SDS011;13247;47.504;7.382;2023-09-07T08:25:41;9.10;;;5.75;;
21816;SDS011;13247;47.504;7.382;2023-09-07T08:28:29;9.23;;;5.57;;
21816;SDS011;13247;47.504;7.382;2023-09-07T08:31:14;8.70;;;5.90;;
21816;SDS011;13247;47.504;7.382;2023-09-07T08:34:06;5.88;;;4.93;;
21816;SDS011;13247;47.504;7.382;2023-09-07T08:36:54;9.63;;;5.85;;
21816;SDS011;13247;47.504;7.382;2023-09-07T08:39:42;7.18;;;4.57;;
21816;SDS011;13247;47.504;7.382;2023-09-07T08:42:26;7.05;;;5.35;;
21816;SDS011;13247;47.504;7.382;2023-09-07T08:45:13;8.60;;;4.63;;
21816;SDS011;13247;47.504;7.382;2023-09-07T08:48:04;5.50;;;4.45;;
21816;SDS011;13247;47.504;7.382;2023-09-07T08:50:49;8.02;;;4.38;;
21816;SDS011;13247;47.504;7.382;2023-09-07T08:53:35;5.88;;;4.82;;
21816;SDS011;13247;47.504;7.382;2023-09-07T08:56:22;6.47;;;4.22;;
21816;SDS011;13247;47.504;7.382;2023-09-07T08:59:07;6.72;;;4.68;;
21816;SDS011;13247;47.504;7.382;2023-09-07T09:01:55;8.00;;;4.55;;
21816;SDS011;13247;47.504;7.382;2023-09-07T09:04:41;10.35;;;4.53;;
21816;SDS011;13247;47.504;7.382;2023-09-07T09:07:26;6.72;;;4.50;;
21816;SDS011;13247;47.504;7.382;2023-09-07T09:10:10;6.60;;;4.63;;
21816;SDS011;13247;47.504;7.382;2023-09-07T09:12:55;6.25;;;4.55;;
21816;SDS011;13247;47.504;7.382;2023-09-07T09:15:40;6.28;;;5.00;;
21816;SDS011;13247;47.504;7.382;2023-09-07T09:18:24;10.02;;;4.43;;
21816;SDS011;13247;47.504;7.382;2023-09-07T09:21:10;5.43;;;4.70;;
21816;SDS011;13247;47.504;7.382;2023-09-07T09:23:57;6.70;;;4.60;;
21816;SDS011;13247;47.504;7.382;2023-09-07T09:26:42;7.32;;;4.70;;
21816;SDS011;13247;47.504;7.382;2023-09-07T09:29:26;5.22;;;3.97;;
21816;SDS011;13247;47.504;7.382;2023-09-07T09:32:13;5.25;;;3.88;;
21816;SDS011;13247;47.504;7.382;2023-09-07T09:34:58;7.43;;;4.78;;
21816;SDS011;13247;47.504;7.382;2023-09-07T09:37:47;5.07;;;4.20;;
21816;SDS011;13247;47.504;7.382;2023-09-07T09:40:33;7.57;;;4.30;;
21816;SDS011;13247;47.504;7.382;2023-09-07T09:43:21;5.10;;;3.80;;
21816;SDS011;13247;47.504;7.382;2023-09-07T09:46:06;6.90;;;4.47;;
21816;SDS011;13247;47.504;7.382;2023-09-07T09:48:52;6.82;;;4.20;;
21816;SDS011;13247;47.504;7.382;2023-09-07T09:51:39;5.32;;;4.20;;
21816;SDS011;13247;47.504;7.382;2023-09-07T09:54:25;5.72;;;4.20;;
21816;SDS011;13247;47.504;7.382;2023-09-07T09:57:11;5.90;;;3.83;;
21816;SDS011;13247;47.504;7.382;2023-09-07T09:59:56;7.43;;;4.85;;
21816;SDS011;13247;47.504;7.382;2023-09-07T10:02:42;5.82;;;4.05;;
21816;SDS011;13247;47.504;7.382;2023-09-07T10:05:35;10.10;;;4.25;;
21816;SDS011;13247;47.504;7.382;2023-09-07T10:08:19;6.90;;;3.72;;
21816;SDS011;13247;47.504;7.382;2023-09-07T10:11:09;5.05;;;3.72;;
21816;SDS011;13247;47.504;7.382;2023-09-07T10:13:56;5.95;;;3.90;;
21816;SDS011;13247;47.504;7.382;2023-09-07T10:16:49;4.50;;;3.70;;
21816;SDS011;13247;47.504;7.382;2023-09-07T10:19:43;5.05;;;4.00;;
21816;SDS011;13247;47.504;7.382;2023-09-07T10:22:34;5.47;;;4.22;;
21816;SDS011;13247;47.504;7.382;2023-09-07T10:25:19;6.25;;;4.20;;
21816;SDS011;13247;47.504;7.382;2023-09-07T10:28:05;7.95;;;4.22;;
21816;SDS011;13247;47.504;7.382;2023-09-07T10:33:47;4.18;;;3.72;;
21816;SDS011;13247;47.504;7.382;2023-09-07T10:36:33;4.60;;;3.63;;
21816;SDS011;13247;47.504;7.382;2023-09-07T10:39:19;7.93;;;3.40;;
21816;SDS011;13247;47.504;7.382;2023-09-07T10:42:05;6.78;;;3.70;;
21816;SDS011;13247;47.504;7.382;2023-09-07T10:44:49;4.85;;;3.30;;
21816;SDS011;13247;47.504;7.382;2023-09-07T10:47:34;4.13;;;3.50;;
21816;SDS011;13247;47.504;7.382;2023-09-07T10:50:19;7.03;;;3.53;;
21816;SDS011;13247;47.504;7.382;2023-09-07T10:53:04;7.70;;;3.90;;
21816;SDS011;13247;47.504;7.382;2023-09-07T10:55:49;3.90;;;3.30;;
21816;SDS011;13247;47.504;7.382;2023-09-07T10:58:34;4.65;;;3.33;;
21816;SDS011;13247;47.504;7.382;2023-09-07T11:01:24;5.10;;;3.75;;
21816;SDS011;13247;47.504;7.382;2023-09-07T11:04:09;3.90;;;3.10;;
21816;SDS011;13247;47.504;7.382;2023-09-07T11:06:54;3.90;;;3.55;;
21816;SDS011;13247;47.504;7.382;2023-09-07T11:09:42;4.72;;;3.90;;
21816;SDS011;13247;47.504;7.382;2023-09-07T11:12:27;5.22;;;3.90;;
21816;SDS011;13247;47.504;7.382;2023-09-07T11:15:12;4.88;;;3.70;;
21816;SDS011;13247;47.504;7.382;2023-09-07T11:17:57;4.65;;;3.47;;
21816;SDS011;13247;47.504;7.382;2023-09-07T11:20:48;4.32;;;3.72;;
21816;SDS011;13247;47.504;7.382;2023-09-07T11:23:33;4.78;;;3.30;;
21816;SDS011;13247;47.504;7.382;2023-09-07T11:26:21;8.13;;;3.47;;
21816;SDS011;13247;47.504;7.382;2023-09-07T11:29:06;3.90;;;3.42;;
21816;SDS011;13247;47.504;7.382;2023-09-07T11:31:51;6.38;;;3.70;;
21816;SDS011;13247;47.504;7.382;2023-09-07T11:34:46;4.78;;;3.63;;
21816;SDS011;13247;47.504;7.382;2023-09-07T11:37:33;5.43;;;3.20;;
21816;SDS011;13247;47.504;7.382;2023-09-07T11:40:18;3.90;;;3.50;;
21816;SDS011;13247;47.504;7.382;2023-09-07T11:43:03;4.40;;;3.90;;
21816;SDS011;13247;47.504;7.382;2023-09-07T11:45:48;5.93;;;3.50;;
21816;SDS011;13247;47.504;7.382;2023-09-07T11:48:33;3.97;;;3.30;;
21816;SDS011;13247;47.504;7.382;2023-09-07T11:51:18;5.28;;;3.50;;
21816;SDS011;13247;47.504;7.382;2023-09-07T11:54:02;5.60;;;3.40;;
21816;SDS011;13247;47.504;7.382;2023-09-07T11:56:48;4.40;;;2.95;;
21816;SDS011;13247;47.504;7.382;2023-09-07T11:59:32;7.45;;;3.58;;
21816;SDS011;13247;47.504;7.382;2023-09-07T12:02:17;5.15;;;3.40;;
21816;SDS011;13247;47.504;7.382;2023-09-07T12:05:05;3.83;;;3.33;;
21816;SDS011;13247;47.504;7.382;2023-09-07T12:07:53;5.32;;;3.63;;
21816;SDS011;13247;47.504;7.382;2023-09-07T12:10:38;5.13;;;3.05;;
21816;SDS011;13247;47.504;7.382;2023-09-07T12:13:22;7.00;;;3.70;;
21816;SDS011;13247;47.504;7.382;2023-09-07T12:16:09;4.57;;;3.45;;
21816;SDS011;13247;47.504;7.382;2023-09-07T12:18:53;4.88;;;3.80;;
21816;SDS011;13247;47.504;7.382;2023-09-07T12:21:38;5.07;;;3.75;;
21816;SDS011;13247;47.504;7.382;2023-09-07T12:24:23;7.05;;;3.10;;
21816;SDS011;13247;47.504;7.382;2023-09-07T12:27:07;4.45;;;3.10;;
21816;SDS011;13247;47.504;7.382;2023-09-07T12:29:52;6.93;;;3.92;;
21816;SDS011;13247;47.504;7.382;2023-09-07T12:32:36;5.53;;;3.58;;
21816;SDS011;13247;47.504;7.382;2023-09-07T12:35:21;4.35;;;3.47;;
21816;SDS011;13247;47.504;7.382;2023-09-07T12:38:07;7.30;;;3.25;;
21816;SDS011;13247;47.504;7.382;2023-09-07T12:40:54;3.53;;;3.08;;
21816;SDS011;13247;47.504;7.382;2023-09-07T12:43:39;3.65;;;3.22;;
21816;SDS011;13247;47.504;7.382;2023-09-07T12:46:24;4.32;;;3.30;;
21816;SDS011;13247;47.504;7.382;2023-09-07T12:49:08;5.15;;;3.20;;
21816;SDS011;13247;47.504;7.382;2023-09-07T12:51:53;4.75;;;3.13;;
21816;SDS011;13247;47.504;7.382;2023-09-07T12:54:37;4.40;;;2.90;;
21816;SDS011;13247;47.504;7.382;2023-09-07T12:57:22;3.47;;;3.17;;
21816;SDS011;13247;47.504;7.382;2023-09-07T13:00:07;5.65;;;3.20;;
21816;SDS011;13247;47.504;7.382;2023-09-07T13:02:54;7.45;;;3.30;;
21816;SDS011;13247;47.504;7.382;2023-09-07T13:05:39;4.57;;;3.45;;
21816;SDS011;13247;47.504;7.382;2023-09-07T13:08:24;4.63;;;3.47;;
21816;SDS011;13247;47.504;7.382;2023-09-07T13:11:08;3.50;;;3.03;;
21816;SDS011;13247;47.504;7.382;2023-09-07T13:13:53;5.22;;;3.30;;
21816;SDS011;13247;47.504;7.382;2023-09-07T13:16:37;4.13;;;3.20;;
21816;SDS011;13247;47.504;7.382;2023-09-07T13:19:22;5.53;;;2.90;;
21816;SDS011;13247;47.504;7.382;2023-09-07T13:22:06;5.80;;;3.10;;
21816;SDS011;13247;47.504;7.382;2023-09-07T13:24:52;5.70;;;3.33;;
21816;SDS011;13247;47.504;7.382;2023-09-07T13:27:36;4.60;;;2.90;;
21816;SDS011;13247;47.504;7.382;2023-09-07T13:30:21;5.28;;;3.15;;
21816;SDS011;13247;47.504;7.382;2023-09-07T13:33:06;3.47;;;3.15;;
21816;SDS011;13247;47.504;7.382;2023-09-07T13:35:51;4.18;;;2.80;;
21816;SDS011;13247;47.504;7.382;2023-09-07T13:38:36;3.80;;;3.15;;
21816;SDS011;13247;47.504;7.382;2023-09-07T13:41:21;3.10;;;2.80;;
21816;SDS011;13247;47.504;7.382;2023-09-07T13:44:06;6.90;;;2.92;;
21816;SDS011;13247;47.504;7.382;2023-09-07T13:46:51;5.45;;;3.30;;
21816;SDS011;13247;47.504;7.382;2023-09-07T13:49:38;3.63;;;3.08;;
21816;SDS011;13247;47.504;7.382;2023-09-07T13:52:23;4.57;;;2.83;;
21816;SDS011;13247;47.504;7.382;2023-09-07T13:55:07;3.47;;;2.80;;
21816;SDS011;13247;47.504;7.382;2023-09-07T13:57:52;5.25;;;3.30;;
21816;SDS011;13247;47.504;7.382;2023-09-07T14:00:37;2.90;;;2.60;;
21816;SDS011;13247;47.504;7.382;2023-09-07T14:03:22;3.13;;;2.75;;
21816;SDS011;13247;47.504;7.382;2023-09-07T14:06:07;2.95;;;2.70;;
21816;SDS011;13247;47.504;7.382;2023-09-07T14:08:51;3.72;;;2.83;;
21816;SDS011;13247;47.504;7.382;2023-09-07T14:11:36;5.43;;;2.90;;
21816;SDS011;13247;47.504;7.382;2023-09-07T14:14:21;4.13;;;2.70;;
21816;SDS011;13247;47.504;7.382;2023-09-07T14:17:06;3.78;;;2.90;;
21816;SDS011;13247;47.504;7.382;2023-09-07T14:19:50;4.18;;;2.67;;
21816;SDS011;13247;47.504;7.382;2023-09-07T14:22:35;3.83;;;3.15;;
21816;SDS011;13247;47.504;7.382;2023-09-07T14:25:19;4.90;;;3.08;;
21816;SDS011;13247;47.504;7.382;2023-09-07T14:28:04;4.40;;;3.28;;
21816;SDS011;13247;47.504;7.382;2023-09-07T14:30:49;4.30;;;2.90;;
21816;SDS011;13247;47.504;7.382;2023-09-07T14:33:35;3.05;;;2.75;;
21816;SDS011;13247;47.504;7.382;2023-09-07T14:36:25;7.78;;;2.92;;
21816;SDS011;13247;47.504;7.382;2023-09-07T14:39:10;4.22;;;2.65;;
21816;SDS011;13247;47.504;7.382;2023-09-07T14:41:56;4.53;;;2.90;;
21816;SDS011;13247;47.504;7.382;2023-09-07T14:44:42;5.18;;;3.00;;
21816;SDS011;13247;47.504;7.382;2023-09-07T14:47:28;5.68;;;3.25;;
21816;SDS011;13247;47.504;7.382;2023-09-07T14:50:13;4.05;;;3.20;;
21816;SDS011;13247;47.504;7.382;2023-09-07T14:52:57;3.72;;;2.53;;
21816;SDS011;13247;47.504;7.382;2023-09-07T14:55:42;4.68;;;3.28;;
21816;SDS011;13247;47.504;7.382;2023-09-07T14:58:27;3.05;;;2.63;;
21816;SDS011;13247;47.504;7.382;2023-09-07T15:01:12;3.33;;;2.60;;
21816;SDS011;13247;47.504;7.382;2023-09-07T15:03:56;6.60;;;3.08;;
21816;SDS011;13247;47.504;7.382;2023-09-07T15:06:41;6.30;;;3.22;;
21816;SDS011;13247;47.504;7.382;2023-09-07T15:09:25;5.10;;;2.90;;
21816;SDS011;13247;47.504;7.382;2023-09-07T15:12:10;5.15;;;3.28;;
21816;SDS011;13247;47.504;7.382;2023-09-07T15:14:55;4.25;;;3.05;;
21816;SDS011;13247;47.504;7.382;2023-09-07T15:17:43;3.58;;;3.15;;
21816;SDS011;13247;47.504;7.382;2023-09-07T15:20:30;7.68;;;3.38;;
21816;SDS011;13247;47.504;7.382;2023-09-07T15:23:15;5.47;;;3.10;;
21816;SDS011;13247;47.504;7.382;2023-09-07T15:26:00;5.68;;;3.35;;
21816;SDS011;13247;47.504;7.382;2023-09-07T15:28:45;3.65;;;3.13;;
21816;SDS011;13247;47.504;7.382;2023-09-07T15:31:30;5.18;;;3.33;;
21816;SDS011;13247;47.504;7.382;2023-09-07T15:34:15;3.63;;;3.05;;
21816;SDS011;13247;47.504;7.382;2023-09-07T15:37:00;4.22;;;2.63;;
21816;SDS011;13247;47.504;7.382;2023-09-07T15:39:48;4.47;;;3.03;;
21816;SDS011;13247;47.504;7.382;2023-09-07T15:42:34;4.05;;;3.15;;
21816;SDS011;13247;47.504;7.382;2023-09-07T15:45:18;3.28;;;2.90;;
21816;SDS011;13247;47.504;7.382;2023-09-07T15:48:03;4.20;;;3.20;;
21816;SDS011;13247;47.504;7.382;2023-09-07T15:50:49;4.05;;;2.95;;
21816;SDS011;13247;47.504;7.382;2023-09-07T15:53:33;8.82;;;3.25;;
21816;SDS011;13247;47.504;7.382;2023-09-07T15:56:18;3.42;;;3.08;;
21816;SDS011;13247;47.504;7.382;2023-09-07T15:59:03;4.18;;;3.00;;
21816;SDS011;13247;47.504;7.382;2023-09-07T16:01:47;4.55;;;3.10;;
21816;SDS011;13247;47.504;7.382;2023-09-07T16:04:33;4.30;;;3.08;;
21816;SDS011;13247;47.504;7.382;2023-09-07T16:07:18;4.85;;;3.65;;
21816;SDS011;13247;47.504;7.382;2023-09-07T16:10:03;4.28;;;2.97;;
21816;SDS011;13247;47.504;7.382;2023-09-07T16:12:48;4.15;;;3.42;;
21816;SDS011;13247;47.504;7.382;2023-09-07T16:15:32;4.43;;;3.45;;
21816;SDS011;13247;47.504;7.382;2023-09-07T16:18:17;5.68;;;3.90;;
21816;SDS011;13247;47.504;7.382;2023-09-07T16:21:03;5.63;;;3.70;;
21816;SDS011;13247;47.504;7.382;2023-09-07T16:23:58;4.65;;;3.15;;
21816;SDS011;13247;47.504;7.382;2023-09-07T16:26:42;6.30;;;3.72;;
21816;SDS011;13247;47.504;7.382;2023-09-07T16:29:27;3.90;;;3.10;;
21816;SDS011;13247;47.504;7.382;2023-09-07T16:32:11;4.65;;;3.40;;
21816;SDS011;13247;47.504;7.382;2023-09-07T16:34:57;10.52;;;3.90;;
21816;SDS011;13247;47.504;7.382;2023-09-07T16:37:42;5.53;;;4.22;;
21816;SDS011;13247;47.504;7.382;2023-09-07T16:40:26;9.23;;;4.05;;